sensor_id;sensor_type;location;lat;lon;timestamp;P1;durP1;ratioP1;P2;durP2;ratioP2
74180;SDS011;62544;50.826;14.354;2022-12-10T00:00:28;38.24;;;17.82;;
74180;SDS011;62544;50.826;14.354;2022-12-10T00:04:32;38.24;;;17.82;;
74180;SDS011;62544;50.826;14.354;2022-12-10T00:08:36;39.05;;;18.01;;
74180;SDS011;62544;50.826;14.354;2022-12-10T00:12:40;39.05;;;18.01;;
74180;SDS011;62544;50.826;14.354;2022-12-10T00:16:44;39.05;;;18.01;;
74180;SDS011;62544;50.826;14.354;2022-12-10T00:20:48;37.98;;;17.37;;
74180;SDS011;62544;50.826;14.354;2022-12-10T00:24:52;37.98;;;17.37;;
74180;SDS011;62544;50.826;14.354;2022-12-10T00:28:56;38.02;;;16.80;;
74180;SDS011;62544;50.826;14.354;2022-12-10T00:33:00;38.02;;;16.80;;
74180;SDS011;62544;50.826;14.354;2022-12-10T00:37:04;38.02;;;16.80;;
74180;SDS011;62544;50.826;14.354;2022-12-10T00:41:08;35.82;;;15.23;;
74180;SDS011;62544;50.826;14.354;2022-12-10T00:45:12;35.82;;;15.23;;
74180;SDS011;62544;50.826;14.354;2022-12-10T00:49:16;35.81;;;16.33;;
74180;SDS011;62544;50.826;14.354;2022-12-10T00:53:20;35.81;;;16.33;;
74180;SDS011;62544;50.826;14.354;2022-12-10T00:57:24;39.18;;;15.96;;
74180;SDS011;62544;50.826;14.354;2022-12-10T01:01:29;39.18;;;15.96;;
74180;SDS011;62544;50.826;14.354;2022-12-10T01:05:32;39.18;;;15.96;;
74180;SDS011;62544;50.826;14.354;2022-12-10T01:09:36;38.88;;;16.68;;
74180;SDS011;62544;50.826;14.354;2022-12-10T01:13:41;38.88;;;16.68;;
74180;SDS011;62544;50.826;14.354;2022-12-10T01:17:44;36.87;;;15.98;;
74180;SDS011;62544;50.826;14.354;2022-12-10T01:21:54;36.87;;;15.98;;
74180;SDS011;62544;50.826;14.354;2022-12-10T01:25:52;36.87;;;15.98;;
74180;SDS011;62544;50.826;14.354;2022-12-10T01:29:56;37.63;;;16.73;;
74180;SDS011;62544;50.826;14.354;2022-12-10T01:34:00;37.63;;;16.73;;
74180;SDS011;62544;50.826;14.354;2022-12-10T01:38:04;39.50;;;17.22;;
74180;SDS011;62544;50.826;14.354;2022-12-10T01:42:08;39.50;;;17.22;;
74180;SDS011;62544;50.826;14.354;2022-12-10T01:46:12;39.50;;;17.22;;
74180;SDS011;62544;50.826;14.354;2022-12-10T01:50:16;34.65;;;15.45;;
74180;SDS011;62544;50.826;14.354;2022-12-10T01:54:22;34.65;;;15.45;;
74180;SDS011;62544;50.826;14.354;2022-12-10T01:58:24;36.21;;;16.24;;
74180;SDS011;62544;50.826;14.354;2022-12-10T02:02:38;36.21;;;16.24;;
74180;SDS011;62544;50.826;14.354;2022-12-10T02:14:43;36.49;;;16.70;;
74180;SDS011;62544;50.826;14.354;2022-12-10T02:18:55;33.17;;;14.89;;
74180;SDS011;62544;50.826;14.354;2022-12-10T02:22:52;33.17;;;14.89;;
74180;SDS011;62544;50.826;14.354;2022-12-10T02:26:56;33.17;;;14.89;;
74180;SDS011;62544;50.826;14.354;2022-12-10T02:30:56;36.75;;;16.61;;
74180;SDS011;62544;50.826;14.354;2022-12-10T02:35:01;36.75;;;16.61;;
74180;SDS011;62544;50.826;14.354;2022-12-10T02:39:05;32.71;;;14.36;;
74180;SDS011;62544;50.826;14.354;2022-12-10T02:43:08;32.71;;;14.36;;
74180;SDS011;62544;50.826;14.354;2022-12-10T02:47:12;34.32;;;14.75;;
74180;SDS011;62544;50.826;14.354;2022-12-10T02:51:16;34.32;;;14.75;;
74180;SDS011;62544;50.826;14.354;2022-12-10T02:55:20;34.32;;;14.75;;
74180;SDS011;62544;50.826;14.354;2022-12-10T03:03:39;37.71;;;15.47;;
74180;SDS011;62544;50.826;14.354;2022-12-10T03:07:45;36.73;;;15.87;;
74180;SDS011;62544;50.826;14.354;2022-12-10T03:11:36;36.73;;;15.87;;
74180;SDS011;62544;50.826;14.354;2022-12-10T03:15:40;36.73;;;15.87;;
74180;SDS011;62544;50.826;14.354;2022-12-10T03:19:45;35.13;;;15.08;;
74180;SDS011;62544;50.826;14.354;2022-12-10T03:23:48;35.13;;;15.08;;
74180;SDS011;62544;50.826;14.354;2022-12-10T03:27:54;35.95;;;15.19;;
74180;SDS011;62544;50.826;14.354;2022-12-10T03:31:56;35.95;;;15.19;;
74180;SDS011;62544;50.826;14.354;2022-12-10T03:36:00;35.95;;;15.19;;
74180;SDS011;62544;50.826;14.354;2022-12-10T03:40:04;34.39;;;14.38;;
74180;SDS011;62544;50.826;14.354;2022-12-10T03:44:08;34.39;;;14.38;;
74180;SDS011;62544;50.826;14.354;2022-12-10T03:48:12;34.60;;;14.55;;
74180;SDS011;62544;50.826;14.354;2022-12-10T03:52:16;34.60;;;14.55;;
74180;SDS011;62544;50.826;14.354;2022-12-10T03:56:20;34.60;;;14.55;;
74180;SDS011;62544;50.826;14.354;2022-12-10T04:00:24;34.45;;;14.26;;
74180;SDS011;62544;50.826;14.354;2022-12-10T04:04:28;34.45;;;14.26;;
74180;SDS011;62544;50.826;14.354;2022-12-10T04:08:32;32.92;;;13.23;;
74180;SDS011;62544;50.826;14.354;2022-12-10T04:12:36;32.92;;;13.23;;
74180;SDS011;62544;50.826;14.354;2022-12-10T04:16:40;32.92;;;13.23;;
74180;SDS011;62544;50.826;14.354;2022-12-10T04:20:44;32.85;;;13.04;;
74180;SDS011;62544;50.826;14.354;2022-12-10T04:24:48;32.85;;;13.04;;
74180;SDS011;62544;50.826;14.354;2022-12-10T04:28:52;33.24;;;13.38;;
74180;SDS011;62544;50.826;14.354;2022-12-10T04:32:56;33.24;;;13.38;;
74180;SDS011;62544;50.826;14.354;2022-12-10T04:37:01;33.24;;;13.38;;
74180;SDS011;62544;50.826;14.354;2022-12-10T04:41:04;35.06;;;14.23;;
74180;SDS011;62544;50.826;14.354;2022-12-10T04:45:09;35.06;;;14.23;;
74180;SDS011;62544;50.826;14.354;2022-12-10T04:49:13;34.49;;;13.76;;
74180;SDS011;62544;50.826;14.354;2022-12-10T04:53:16;34.49;;;13.76;;
74180;SDS011;62544;50.826;14.354;2022-12-10T04:57:20;36.05;;;13.44;;
74180;SDS011;62544;50.826;14.354;2022-12-10T05:01:25;36.05;;;13.44;;
74180;SDS011;62544;50.826;14.354;2022-12-10T05:05:28;36.05;;;13.44;;
74180;SDS011;62544;50.826;14.354;2022-12-10T05:09:32;34.94;;;13.90;;
74180;SDS011;62544;50.826;14.354;2022-12-10T05:13:36;34.94;;;13.90;;
74180;SDS011;62544;50.826;14.354;2022-12-10T05:17:40;40.99;;;15.24;;
74180;SDS011;62544;50.826;14.354;2022-12-10T05:21:44;40.99;;;15.24;;
74180;SDS011;62544;50.826;14.354;2022-12-10T05:25:48;40.99;;;15.24;;
74180;SDS011;62544;50.826;14.354;2022-12-10T05:29:52;37.37;;;14.29;;
74180;SDS011;62544;50.826;14.354;2022-12-10T05:33:57;37.37;;;14.29;;
74180;SDS011;62544;50.826;14.354;2022-12-10T05:38:00;36.56;;;13.72;;
74180;SDS011;62544;50.826;14.354;2022-12-10T05:42:04;36.56;;;13.72;;
74180;SDS011;62544;50.826;14.354;2022-12-10T05:46:12;36.56;;;13.72;;
74180;SDS011;62544;50.826;14.354;2022-12-10T05:50:12;36.79;;;14.31;;
74180;SDS011;62544;50.826;14.354;2022-12-10T05:54:16;36.79;;;14.31;;
74180;SDS011;62544;50.826;14.354;2022-12-10T05:58:20;41.71;;;15.65;;
74180;SDS011;62544;50.826;14.354;2022-12-10T06:02:24;41.71;;;15.65;;
74180;SDS011;62544;50.826;14.354;2022-12-10T06:06:29;41.71;;;15.65;;
74180;SDS011;62544;50.826;14.354;2022-12-10T06:10:35;40.60;;;15.45;;
74180;SDS011;62544;50.826;14.354;2022-12-10T06:14:36;40.60;;;15.45;;
74180;SDS011;62544;50.826;14.354;2022-12-10T06:18:40;40.55;;;15.99;;
74180;SDS011;62544;50.826;14.354;2022-12-10T06:22:44;40.55;;;15.99;;
74180;SDS011;62544;50.826;14.354;2022-12-10T06:26:48;40.55;;;15.99;;
74180;SDS011;62544;50.826;14.354;2022-12-10T06:30:52;36.51;;;15.09;;
74180;SDS011;62544;50.826;14.354;2022-12-10T06:34:56;36.51;;;15.09;;
74180;SDS011;62544;50.826;14.354;2022-12-10T06:39:00;34.03;;;14.92;;
74180;SDS011;62544;50.826;14.354;2022-12-10T06:43:04;34.03;;;14.92;;
74180;SDS011;62544;50.826;14.354;2022-12-10T06:47:08;34.03;;;14.92;;
74180;SDS011;62544;50.826;14.354;2022-12-10T06:51:12;37.69;;;16.03;;
74180;SDS011;62544;50.826;14.354;2022-12-10T06:55:16;37.69;;;16.03;;
74180;SDS011;62544;50.826;14.354;2022-12-10T06:59:20;37.57;;;16.23;;
74180;SDS011;62544;50.826;14.354;2022-12-10T07:03:24;37.57;;;16.23;;
74180;SDS011;62544;50.826;14.354;2022-12-10T07:07:28;30.72;;;13.34;;
74180;SDS011;62544;50.826;14.354;2022-12-10T07:11:32;30.72;;;13.34;;
74180;SDS011;62544;50.826;14.354;2022-12-10T07:15:36;30.72;;;13.34;;
74180;SDS011;62544;50.826;14.354;2022-12-10T07:19:40;34.38;;;15.35;;
74180;SDS011;62544;50.826;14.354;2022-12-10T07:23:44;34.38;;;15.35;;
74180;SDS011;62544;50.826;14.354;2022-12-10T07:27:48;33.34;;;14.78;;
74180;SDS011;62544;50.826;14.354;2022-12-10T07:31:52;33.34;;;14.78;;
74180;SDS011;62544;50.826;14.354;2022-12-10T07:35:56;33.34;;;14.78;;
74180;SDS011;62544;50.826;14.354;2022-12-10T07:40:00;33.46;;;14.77;;
74180;SDS011;62544;50.826;14.354;2022-12-10T07:44:04;33.46;;;14.77;;
74180;SDS011;62544;50.826;14.354;2022-12-10T07:48:08;34.98;;;15.72;;
74180;SDS011;62544;50.826;14.354;2022-12-10T07:52:12;34.98;;;15.72;;
74180;SDS011;62544;50.826;14.354;2022-12-10T07:56:16;34.98;;;15.72;;
74180;SDS011;62544;50.826;14.354;2022-12-10T08:00:20;32.82;;;15.29;;
74180;SDS011;62544;50.826;14.354;2022-12-10T08:04:24;32.82;;;15.29;;
74180;SDS011;62544;50.826;14.354;2022-12-10T08:08:28;31.44;;;14.42;;
74180;SDS011;62544;50.826;14.354;2022-12-10T08:12:32;31.44;;;14.42;;
74180;SDS011;62544;50.826;14.354;2022-12-10T08:16:36;31.44;;;14.42;;
74180;SDS011;62544;50.826;14.354;2022-12-10T08:20:40;32.84;;;14.54;;
74180;SDS011;62544;50.826;14.354;2022-12-10T08:24:44;32.84;;;14.54;;
74180;SDS011;62544;50.826;14.354;2022-12-10T08:28:48;36.59;;;15.92;;
74180;SDS011;62544;50.826;14.354;2022-12-10T08:32:52;36.59;;;15.92;;
74180;SDS011;62544;50.826;14.354;2022-12-10T08:36:56;36.59;;;15.92;;
74180;SDS011;62544;50.826;14.354;2022-12-10T08:41:05;33.51;;;15.07;;
74180;SDS011;62544;50.826;14.354;2022-12-10T08:45:04;33.51;;;15.07;;
74180;SDS011;62544;50.826;14.354;2022-12-10T08:49:08;36.03;;;15.88;;
74180;SDS011;62544;50.826;14.354;2022-12-10T08:53:12;36.03;;;15.88;;
74180;SDS011;62544;50.826;14.354;2022-12-10T08:57:16;34.36;;;16.02;;
74180;SDS011;62544;50.826;14.354;2022-12-10T09:01:20;34.36;;;16.02;;
74180;SDS011;62544;50.826;14.354;2022-12-10T09:05:24;34.36;;;16.02;;
74180;SDS011;62544;50.826;14.354;2022-12-10T09:09:28;34.72;;;16.20;;
74180;SDS011;62544;50.826;14.354;2022-12-10T09:13:32;34.72;;;16.20;;
74180;SDS011;62544;50.826;14.354;2022-12-10T09:17:36;35.21;;;15.65;;
74180;SDS011;62544;50.826;14.354;2022-12-10T09:21:40;35.21;;;15.65;;
74180;SDS011;62544;50.826;14.354;2022-12-10T09:25:44;35.21;;;15.65;;
74180;SDS011;62544;50.826;14.354;2022-12-10T09:29:48;35.09;;;16.18;;
74180;SDS011;62544;50.826;14.354;2022-12-10T09:33:52;35.09;;;16.18;;
74180;SDS011;62544;50.826;14.354;2022-12-10T09:37:56;37.31;;;16.46;;
74180;SDS011;62544;50.826;14.354;2022-12-10T09:46:10;37.31;;;16.46;;
74180;SDS011;62544;50.826;14.354;2022-12-10T09:54:18;35.92;;;16.52;;
74180;SDS011;62544;50.826;14.354;2022-12-10T09:58:25;34.64;;;16.15;;
74180;SDS011;62544;50.826;14.354;2022-12-10T10:02:26;34.64;;;16.15;;
74180;SDS011;62544;50.826;14.354;2022-12-10T10:06:24;34.64;;;16.15;;
74180;SDS011;62544;50.826;14.354;2022-12-10T10:10:29;47.14;;;23.26;;
74180;SDS011;62544;50.826;14.354;2022-12-10T10:14:32;47.14;;;23.26;;
74180;SDS011;62544;50.826;14.354;2022-12-10T10:18:37;38.22;;;18.41;;
74180;SDS011;62544;50.826;14.354;2022-12-10T10:22:40;38.22;;;18.41;;
74180;SDS011;62544;50.826;14.354;2022-12-10T10:26:44;38.22;;;18.41;;
74180;SDS011;62544;50.826;14.354;2022-12-10T10:30:48;34.62;;;16.29;;
74180;SDS011;62544;50.826;14.354;2022-12-10T10:34:53;34.62;;;16.29;;
74180;SDS011;62544;50.826;14.354;2022-12-10T10:38:56;34.94;;;16.28;;
74180;SDS011;62544;50.826;14.354;2022-12-10T10:43:00;34.94;;;16.28;;
74180;SDS011;62544;50.826;14.354;2022-12-10T10:47:23;34.94;;;16.28;;
74180;SDS011;62544;50.826;14.354;2022-12-10T10:51:15;35.23;;;16.40;;
74180;SDS011;62544;50.826;14.354;2022-12-10T10:55:30;35.23;;;16.40;;
74180;SDS011;62544;50.826;14.354;2022-12-10T11:03:20;39.91;;;16.51;;
74180;SDS011;62544;50.826;14.354;2022-12-10T11:07:41;32.35;;;14.39;;
74180;SDS011;62544;50.826;14.354;2022-12-10T11:11:40;32.35;;;14.39;;
74180;SDS011;62544;50.826;14.354;2022-12-10T11:15:35;32.35;;;14.39;;
74180;SDS011;62544;50.826;14.354;2022-12-10T11:19:53;41.40;;;18.87;;
74180;SDS011;62544;50.826;14.354;2022-12-10T11:23:41;41.40;;;18.87;;
74180;SDS011;62544;50.826;14.354;2022-12-10T11:31:54;34.59;;;16.15;;
74180;SDS011;62544;50.826;14.354;2022-12-10T11:36:00;34.59;;;16.15;;
74180;SDS011;62544;50.826;14.354;2022-12-10T11:52:15;38.96;;;17.28;;
74180;SDS011;62544;50.826;14.354;2022-12-10T11:56:22;38.96;;;17.28;;
74180;SDS011;62544;50.826;14.354;2022-12-10T12:00:20;38.49;;;17.27;;
74180;SDS011;62544;50.826;14.354;2022-12-10T12:04:25;38.49;;;17.27;;
74180;SDS011;62544;50.826;14.354;2022-12-10T12:08:29;39.24;;;16.26;;
74180;SDS011;62544;50.826;14.354;2022-12-10T12:12:33;39.24;;;16.26;;
74180;SDS011;62544;50.826;14.354;2022-12-10T12:16:37;39.24;;;16.26;;
74180;SDS011;62544;50.826;14.354;2022-12-10T12:20:49;35.54;;;15.66;;
74180;SDS011;62544;50.826;14.354;2022-12-10T12:24:40;35.54;;;15.66;;
74180;SDS011;62544;50.826;14.354;2022-12-10T12:28:49;33.53;;;15.36;;
74180;SDS011;62544;50.826;14.354;2022-12-10T12:32:53;33.53;;;15.36;;
74180;SDS011;62544;50.826;14.354;2022-12-10T12:36:52;33.53;;;15.36;;
74180;SDS011;62544;50.826;14.354;2022-12-10T12:41:09;32.22;;;15.17;;
74180;SDS011;62544;50.826;14.354;2022-12-10T12:45:08;32.22;;;15.17;;
74180;SDS011;62544;50.826;14.354;2022-12-10T12:49:14;37.50;;;16.60;;
74180;SDS011;62544;50.826;14.354;2022-12-10T12:53:18;37.50;;;16.60;;
74180;SDS011;62544;50.826;14.354;2022-12-10T12:57:22;37.50;;;16.60;;
74180;SDS011;62544;50.826;14.354;2022-12-10T13:01:36;37.68;;;17.65;;
74180;SDS011;62544;50.826;14.354;2022-12-10T13:05:30;37.68;;;17.65;;
74180;SDS011;62544;50.826;14.354;2022-12-10T13:09:25;33.66;;;16.37;;
74180;SDS011;62544;50.826;14.354;2022-12-10T13:13:30;33.66;;;16.37;;
74180;SDS011;62544;50.826;14.354;2022-12-10T13:17:33;31.80;;;15.94;;
74180;SDS011;62544;50.826;14.354;2022-12-10T13:21:36;31.80;;;15.94;;
74180;SDS011;62544;50.826;14.354;2022-12-10T13:25:55;31.80;;;15.94;;
74180;SDS011;62544;50.826;14.354;2022-12-10T13:30:00;33.06;;;15.99;;
74180;SDS011;62544;50.826;14.354;2022-12-10T13:33:53;33.06;;;15.99;;
74180;SDS011;62544;50.826;14.354;2022-12-10T13:37:56;30.71;;;14.52;;
74180;SDS011;62544;50.826;14.354;2022-12-10T13:50:05;32.32;;;14.23;;
74180;SDS011;62544;50.826;14.354;2022-12-10T14:02:30;26.68;;;12.91;;
74180;SDS011;62544;50.826;14.354;2022-12-10T14:06:24;26.68;;;12.91;;
74180;SDS011;62544;50.826;14.354;2022-12-10T14:10:26;25.46;;;11.69;;
74180;SDS011;62544;50.826;14.354;2022-12-10T14:14:35;25.46;;;11.69;;
74180;SDS011;62544;50.826;14.354;2022-12-10T14:18:32;22.86;;;11.39;;
74180;SDS011;62544;50.826;14.354;2022-12-10T14:22:54;22.86;;;11.39;;
74180;SDS011;62544;50.826;14.354;2022-12-10T14:26:40;22.86;;;11.39;;
74180;SDS011;62544;50.826;14.354;2022-12-10T14:30:45;23.66;;;11.40;;
74180;SDS011;62544;50.826;14.354;2022-12-10T14:34:54;23.66;;;11.40;;
74180;SDS011;62544;50.826;14.354;2022-12-10T14:38:52;22.96;;;10.94;;
74180;SDS011;62544;50.826;14.354;2022-12-10T14:43:02;22.96;;;10.94;;
74180;SDS011;62544;50.826;14.354;2022-12-10T14:51:05;23.22;;;11.22;;
74180;SDS011;62544;50.826;14.354;2022-12-10T14:55:11;23.22;;;11.22;;
74180;SDS011;62544;50.826;14.354;2022-12-10T14:59:14;22.12;;;10.58;;
74180;SDS011;62544;50.826;14.354;2022-12-10T15:03:24;22.12;;;10.58;;
74180;SDS011;62544;50.826;14.354;2022-12-10T15:07:22;22.12;;;10.58;;
74180;SDS011;62544;50.826;14.354;2022-12-10T15:11:24;22.41;;;10.45;;
74180;SDS011;62544;50.826;14.354;2022-12-10T15:15:29;22.41;;;10.45;;
74180;SDS011;62544;50.826;14.354;2022-12-10T15:19:32;21.36;;;10.02;;
74180;SDS011;62544;50.826;14.354;2022-12-10T15:23:44;21.36;;;10.02;;
74180;SDS011;62544;50.826;14.354;2022-12-10T15:27:40;23.81;;;12.00;;
74180;SDS011;62544;50.826;14.354;2022-12-10T15:31:44;23.81;;;12.00;;
74180;SDS011;62544;50.826;14.354;2022-12-10T15:35:48;23.81;;;12.00;;
74180;SDS011;62544;50.826;14.354;2022-12-10T15:39:53;23.83;;;11.64;;
74180;SDS011;62544;50.826;14.354;2022-12-10T15:43:58;23.83;;;11.64;;
74180;SDS011;62544;50.826;14.354;2022-12-10T15:48:00;38.36;;;21.58;;
74180;SDS011;62544;50.826;14.354;2022-12-10T15:52:04;38.36;;;21.58;;
74180;SDS011;62544;50.826;14.354;2022-12-10T15:56:08;38.36;;;21.58;;
74180;SDS011;62544;50.826;14.354;2022-12-10T16:00:25;23.98;;;11.56;;
74180;SDS011;62544;50.826;14.354;2022-12-10T16:04:16;23.98;;;11.56;;
74180;SDS011;62544;50.826;14.354;2022-12-10T16:08:21;24.57;;;12.20;;
74180;SDS011;62544;50.826;14.354;2022-12-10T16:12:24;24.57;;;12.20;;
74180;SDS011;62544;50.826;14.354;2022-12-10T16:16:28;24.57;;;12.20;;
74180;SDS011;62544;50.826;14.354;2022-12-10T16:20:32;23.25;;;11.30;;
74180;SDS011;62544;50.826;14.354;2022-12-10T16:24:36;23.25;;;11.30;;
74180;SDS011;62544;50.826;14.354;2022-12-10T16:28:40;24.22;;;12.21;;
74180;SDS011;62544;50.826;14.354;2022-12-10T16:32:44;24.22;;;12.21;;
74180;SDS011;62544;50.826;14.354;2022-12-10T16:36:48;24.22;;;12.21;;
74180;SDS011;62544;50.826;14.354;2022-12-10T16:40:52;20.88;;;11.72;;
74180;SDS011;62544;50.826;14.354;2022-12-10T16:44:56;20.88;;;11.72;;
74180;SDS011;62544;50.826;14.354;2022-12-10T16:49:00;21.38;;;12.42;;
74180;SDS011;62544;50.826;14.354;2022-12-10T16:53:17;21.38;;;12.42;;
74180;SDS011;62544;50.826;14.354;2022-12-10T16:57:12;21.38;;;12.42;;
74180;SDS011;62544;50.826;14.354;2022-12-10T17:01:16;22.60;;;11.99;;
74180;SDS011;62544;50.826;14.354;2022-12-10T17:05:23;22.60;;;11.99;;
74180;SDS011;62544;50.826;14.354;2022-12-10T17:09:21;25.18;;;14.84;;
74180;SDS011;62544;50.826;14.354;2022-12-10T17:13:24;25.18;;;14.84;;
74180;SDS011;62544;50.826;14.354;2022-12-10T17:17:28;25.18;;;14.84;;
74180;SDS011;62544;50.826;14.354;2022-12-10T17:21:32;25.18;;;14.84;;
74180;SDS011;62544;50.826;14.354;2022-12-10T17:25:37;25.18;;;14.84;;
74180;SDS011;62544;50.826;14.354;2022-12-10T17:29:41;25.18;;;14.84;;
74180;SDS011;62544;50.826;14.354;2022-12-10T17:33:44;25.18;;;14.84;;
74180;SDS011;62544;50.826;14.354;2022-12-10T17:37:48;25.18;;;14.84;;
74180;SDS011;62544;50.826;14.354;2022-12-10T17:41:52;25.18;;;14.84;;
74180;SDS011;62544;50.826;14.354;2022-12-10T17:45:59;25.18;;;14.84;;
74180;SDS011;62544;50.826;14.354;2022-12-10T17:50:02;19.29;;;10.95;;
74180;SDS011;62544;50.826;14.354;2022-12-10T17:54:04;19.29;;;10.95;;
74180;SDS011;62544;50.826;14.354;2022-12-10T17:58:09;19.29;;;10.95;;
74180;SDS011;62544;50.826;14.354;2022-12-10T18:02:12;19.29;;;10.95;;
74180;SDS011;62544;50.826;14.354;2022-12-10T18:06:17;19.29;;;10.95;;
74180;SDS011;62544;50.826;14.354;2022-12-10T18:10:22;20.09;;;11.59;;
74180;SDS011;62544;50.826;14.354;2022-12-10T18:14:24;20.09;;;11.59;;
74180;SDS011;62544;50.826;14.354;2022-12-10T18:18:28;21.80;;;12.59;;
74180;SDS011;62544;50.826;14.354;2022-12-10T18:22:32;21.80;;;12.59;;
74180;SDS011;62544;50.826;14.354;2022-12-10T18:26:36;21.80;;;12.59;;
74180;SDS011;62544;50.826;14.354;2022-12-10T18:30:40;22.67;;;13.96;;
74180;SDS011;62544;50.826;14.354;2022-12-10T18:34:44;22.67;;;13.96;;
74180;SDS011;62544;50.826;14.354;2022-12-10T18:38:49;18.64;;;11.27;;
74180;SDS011;62544;50.826;14.354;2022-12-10T18:42:52;18.64;;;11.27;;
74180;SDS011;62544;50.826;14.354;2022-12-10T18:46:57;18.64;;;11.27;;
74180;SDS011;62544;50.826;14.354;2022-12-10T18:51:05;17.37;;;10.40;;
74180;SDS011;62544;50.826;14.354;2022-12-10T18:55:05;17.37;;;10.40;;
74180;SDS011;62544;50.826;14.354;2022-12-10T18:59:12;17.04;;;9.93;;
74180;SDS011;62544;50.826;14.354;2022-12-10T19:03:12;17.04;;;9.93;;
74180;SDS011;62544;50.826;14.354;2022-12-10T19:07:16;17.04;;;9.93;;
74180;SDS011;62544;50.826;14.354;2022-12-10T19:11:21;15.23;;;9.38;;
74180;SDS011;62544;50.826;14.354;2022-12-10T19:15:26;15.23;;;9.38;;
74180;SDS011;62544;50.826;14.354;2022-12-10T19:19:29;14.17;;;8.40;;
74180;SDS011;62544;50.826;14.354;2022-12-10T19:23:33;14.17;;;8.40;;
74180;SDS011;62544;50.826;14.354;2022-12-10T19:27:37;14.20;;;8.32;;
74180;SDS011;62544;50.826;14.354;2022-12-10T19:31:41;14.20;;;8.32;;
74180;SDS011;62544;50.826;14.354;2022-12-10T19:35:45;14.20;;;8.32;;
74180;SDS011;62544;50.826;14.354;2022-12-10T19:39:49;15.24;;;9.41;;
74180;SDS011;62544;50.826;14.354;2022-12-10T19:43:53;15.24;;;9.41;;
74180;SDS011;62544;50.826;14.354;2022-12-10T19:47:57;14.87;;;9.19;;
74180;SDS011;62544;50.826;14.354;2022-12-10T19:52:01;14.87;;;9.19;;
74180;SDS011;62544;50.826;14.354;2022-12-10T20:00:15;18.10;;;10.64;;
74180;SDS011;62544;50.826;14.354;2022-12-10T20:04:13;18.10;;;10.64;;
74180;SDS011;62544;50.826;14.354;2022-12-10T20:08:17;17.56;;;10.35;;
74180;SDS011;62544;50.826;14.354;2022-12-10T20:12:21;17.56;;;10.35;;
74180;SDS011;62544;50.826;14.354;2022-12-10T20:16:26;17.56;;;10.35;;
74180;SDS011;62544;50.826;14.354;2022-12-10T20:20:29;19.35;;;11.95;;
74180;SDS011;62544;50.826;14.354;2022-12-10T20:24:33;19.35;;;11.95;;
74180;SDS011;62544;50.826;14.354;2022-12-10T20:28:37;21.95;;;12.62;;
74180;SDS011;62544;50.826;14.354;2022-12-10T20:32:41;21.95;;;12.62;;
74180;SDS011;62544;50.826;14.354;2022-12-10T20:36:45;21.95;;;12.62;;
74180;SDS011;62544;50.826;14.354;2022-12-10T20:40:49;19.53;;;11.72;;
74180;SDS011;62544;50.826;14.354;2022-12-10T20:44:53;19.53;;;11.72;;
74180;SDS011;62544;50.826;14.354;2022-12-10T20:48:57;19.78;;;11.30;;
74180;SDS011;62544;50.826;14.354;2022-12-10T20:53:01;19.78;;;11.30;;
74180;SDS011;62544;50.826;14.354;2022-12-10T20:57:07;19.78;;;11.30;;
74180;SDS011;62544;50.826;14.354;2022-12-10T21:01:09;20.99;;;12.31;;
74180;SDS011;62544;50.826;14.354;2022-12-10T21:05:13;20.99;;;12.31;;
74180;SDS011;62544;50.826;14.354;2022-12-10T21:09:17;21.23;;;12.49;;
74180;SDS011;62544;50.826;14.354;2022-12-10T21:13:23;21.23;;;12.49;;
74180;SDS011;62544;50.826;14.354;2022-12-10T21:17:25;21.23;;;12.49;;
74180;SDS011;62544;50.826;14.354;2022-12-10T21:25:33;23.67;;;12.85;;
74180;SDS011;62544;50.826;14.354;2022-12-10T21:29:37;19.84;;;11.01;;
74180;SDS011;62544;50.826;14.354;2022-12-10T21:33:41;19.84;;;11.01;;
74180;SDS011;62544;50.826;14.354;2022-12-10T21:37:45;20.54;;;11.72;;
74180;SDS011;62544;50.826;14.354;2022-12-10T21:41:49;20.54;;;11.72;;
74180;SDS011;62544;50.826;14.354;2022-12-10T21:45:54;20.54;;;11.72;;
74180;SDS011;62544;50.826;14.354;2022-12-10T21:49:57;17.15;;;10.14;;
74180;SDS011;62544;50.826;14.354;2022-12-10T21:54:01;17.15;;;10.14;;
74180;SDS011;62544;50.826;14.354;2022-12-10T21:58:05;19.89;;;11.36;;
74180;SDS011;62544;50.826;14.354;2022-12-10T22:02:09;19.89;;;11.36;;
74180;SDS011;62544;50.826;14.354;2022-12-10T22:06:19;19.89;;;11.36;;
74180;SDS011;62544;50.826;14.354;2022-12-10T22:10:17;17.29;;;10.35;;
74180;SDS011;62544;50.826;14.354;2022-12-10T22:14:21;17.29;;;10.35;;
74180;SDS011;62544;50.826;14.354;2022-12-10T22:18:25;16.86;;;9.90;;
74180;SDS011;62544;50.826;14.354;2022-12-10T22:22:29;16.86;;;9.90;;
74180;SDS011;62544;50.826;14.354;2022-12-10T22:26:33;16.86;;;9.90;;
74180;SDS011;62544;50.826;14.354;2022-12-10T22:30:40;15.57;;;9.02;;
74180;SDS011;62544;50.826;14.354;2022-12-10T22:34:41;15.57;;;9.02;;
74180;SDS011;62544;50.826;14.354;2022-12-10T22:38:45;16.67;;;9.10;;
74180;SDS011;62544;50.826;14.354;2022-12-10T22:42:49;16.67;;;9.10;;
74180;SDS011;62544;50.826;14.354;2022-12-10T22:46:53;16.67;;;9.10;;
74180;SDS011;62544;50.826;14.354;2022-12-10T22:51:00;15.24;;;9.27;;
74180;SDS011;62544;50.826;14.354;2022-12-10T22:55:01;15.24;;;9.27;;
74180;SDS011;62544;50.826;14.354;2022-12-10T22:59:05;14.55;;;8.18;;
74180;SDS011;62544;50.826;14.354;2022-12-10T23:03:09;14.55;;;8.18;;
74180;SDS011;62544;50.826;14.354;2022-12-10T23:07:13;14.55;;;8.18;;
74180;SDS011;62544;50.826;14.354;2022-12-10T23:11:17;14.15;;;8.35;;
74180;SDS011;62544;50.826;14.354;2022-12-10T23:15:21;14.15;;;8.35;;
74180;SDS011;62544;50.826;14.354;2022-12-10T23:19:25;14.37;;;8.50;;
74180;SDS011;62544;50.826;14.354;2022-12-10T23:23:29;14.37;;;8.50;;
74180;SDS011;62544;50.826;14.354;2022-12-10T23:27:33;12.60;;;7.44;;
74180;SDS011;62544;50.826;14.354;2022-12-10T23:31:37;12.60;;;7.44;;
74180;SDS011;62544;50.826;14.354;2022-12-10T23:35:41;12.60;;;7.44;;
74180;SDS011;62544;50.826;14.354;2022-12-10T23:39:45;12.91;;;7.94;;
74180;SDS011;62544;50.826;14.354;2022-12-10T23:43:49;12.91;;;7.94;;
74180;SDS011;62544;50.826;14.354;2022-12-10T23:47:53;13.21;;;7.72;;
74180;SDS011;62544;50.826;14.354;2022-12-10T23:51:57;13.21;;;7.72;;
74180;SDS011;62544;50.826;14.354;2022-12-10T23:56:02;13.21;;;7.72;;
